createdAt,value
2023-03-15T00:01:22.049Z,99156.03
2023-03-15T00:03:49.211Z,99162.03
2023-03-15T00:06:16.518Z,99176.31
2023-03-15T00:08:48.148Z,99160.19
2023-03-15T00:11:19.088Z,99181.97
2023-03-15T00:13:51.731Z,99180.47
2023-03-15T00:16:18.878Z,99179.81
2023-03-15T00:18:47.452Z,99188.44
2023-03-15T00:21:17.089Z,99186.47
2023-03-15T00:23:43.805Z,99185.47
2023-03-15T00:26:10.619Z,99196.94
2023-03-15T00:28:40.899Z,99199.75
2023-03-15T00:31:13.559Z,99207.22
2023-03-15T00:33:41.761Z,99215.69
2023-03-15T00:36:09.924Z,99209.44
2023-03-15T00:38:38.009Z,99221.72
2023-03-15T00:41:09.506Z,99223.38
2023-03-15T00:43:36.329Z,99228.53
2023-03-15T00:46:04.618Z,99234.00
2023-03-15T00:48:32.910Z,99227.66
2023-03-15T00:51:01.017Z,99239.16
2023-03-15T00:53:27.659Z,99241.47
2023-03-15T00:55:54.522Z,99245.78
2023-03-15T00:58:23.457Z,99242.81
2023-03-15T01:00:51.983Z,99243.47
2023-03-15T01:03:18.789Z,99249.47
2023-03-15T01:05:45.707Z,99255.44
2023-03-15T01:08:12.580Z,99256.75
2023-03-15T01:10:39.257Z,99259.56
2023-03-15T01:13:07.334Z,99267.03
2023-03-15T01:15:34.025Z,99272.34
2023-03-15T01:18:00.873Z,99266.03
2023-03-15T01:20:30.157Z,99280.97
2023-03-15T01:22:56.850Z,99281.66
2023-03-15T01:25:23.532Z,99286.97
2023-03-15T01:27:50.230Z,99285.31
2023-03-15T01:30:19.931Z,99288.63
2023-03-15T01:32:46.616Z,99285.94
2023-03-15T01:35:13.513Z,99290.75
2023-03-15T01:37:40.357Z,99293.56
2023-03-15T01:40:13.601Z,99297.22
2023-03-15T01:45:58.034Z,99302.06
2023-03-15T01:48:30.540Z,99303.88
2023-03-15T01:50:58.684Z,99313.84
2023-03-15T01:53:27.368Z,99319.78
2023-03-15T01:55:55.005Z,99317.94
2023-03-15T01:58:26.787Z,99318.28
2023-03-15T02:00:53.717Z,99320.75
2023-03-15T02:03:28.938Z,99333.34
2023-03-15T02:06:01.040Z,99333.31
2023-03-15T02:08:34.803Z,99345.88
2023-03-15T02:11:04.343Z,99340.19
2023-03-15T02:13:33.731Z,99343.28
2023-03-15T02:16:01.133Z,99350.47
2023-03-15T02:18:27.787Z,99351.47
2023-03-15T02:20:57.784Z,99346.84
2023-03-15T02:23:25.255Z,99344.47
2023-03-15T02:26:01.064Z,99347.44
2023-03-15T02:28:28.648Z,99350.09
2023-03-15T02:30:55.490Z,99351.63
2023-03-15T02:33:38.500Z,99352.78
2023-03-15T02:36:22.863Z,99360.09
2023-03-15T02:38:50.621Z,99360.09
2023-03-15T02:41:29.916Z,99354.22
2023-03-15T02:44:01.124Z,99355.09
2023-03-15T02:46:28.516Z,99363.38
2023-03-15T02:48:55.769Z,99365.66
2023-03-15T02:51:28.285Z,99365.81
2023-03-15T02:53:55.614Z,99365.06
2023-03-15T02:56:22.531Z,99373.53
2023-03-15T02:58:49.222Z,99383.16
2023-03-15T03:01:18.195Z,99389.38
2023-03-15T03:03:46.574Z,99390.75
2023-03-15T03:06:14.741Z,99393.16
2023-03-15T03:08:41.580Z,99393.41
2023-03-15T03:11:08.287Z,99402.31
2023-03-15T03:13:34.936Z,99412.53
2023-03-15T03:16:01.642Z,99408.75
2023-03-15T03:18:29.710Z,99416.88
2023-03-15T03:20:57.690Z,99415.78
2023-03-15T03:23:26.046Z,99423.06
2023-03-15T03:25:54.211Z,99428.59
2023-03-15T03:28:25.739Z,99436.72
2023-03-15T03:30:54.673Z,99448.53
2023-03-15T03:33:22.429Z,99441.59
2023-03-15T03:35:50.393Z,99443.03
2023-03-15T03:38:17.270Z,99452.91
2023-03-15T03:40:45.627Z,99450.50
2023-03-15T03:43:12.337Z,99458.91
2023-03-15T03:45:39.035Z,99461.94
2023-03-15T03:48:05.867Z,99451.41
2023-03-15T03:50:33.301Z,99463.44
2023-03-15T03:55:25.664Z,99460.75
2023-03-15T03:57:55.246Z,99465.66
2023-03-15T04:00:21.952Z,99470.22
2023-03-15T04:02:48.908Z,99472.94
2023-03-15T04:05:15.776Z,99475.28
2023-03-15T04:07:42.432Z,99480.81
2023-03-15T04:10:09.799Z,99476.03
2023-03-15T04:12:36.441Z,99484.41
2023-03-15T04:15:03.707Z,99485.34
2023-03-15T04:17:30.652Z,99499.19
2023-03-15T04:19:57.415Z,99503.19
2023-03-15T04:22:24.159Z,99511.63
2023-03-15T04:24:50.882Z,99512.28
2023-03-15T04:27:17.807Z,99517.00
2023-03-15T04:29:44.829Z,99511.88
2023-03-15T04:32:11.848Z,99520.06
2023-03-15T04:34:41.385Z,99526.34
2023-03-15T04:37:09.349Z,99522.47
2023-03-15T04:39:36.017Z,99520.56
2023-03-15T04:42:03.369Z,99523.25
2023-03-15T04:44:30.041Z,99535.88
2023-03-15T04:46:56.858Z,99526.66
2023-03-15T04:49:23.561Z,99528.44
2023-03-15T04:51:53.066Z,99532.59
2023-03-15T04:54:19.853Z,99536.41
2023-03-15T04:56:46.635Z,99536.38
2023-03-15T04:59:13.478Z,99540.00
2023-03-15T05:01:40.214Z,99545.03
2023-03-15T05:04:07.041Z,99544.91
2023-03-15T05:06:33.845Z,99549.97
2023-03-15T05:09:00.854Z,99550.19
2023-03-15T05:11:27.741Z,99547.25
2023-03-15T05:13:54.530Z,99554.13
2023-03-15T05:16:21.582Z,99551.19
2023-03-15T05:18:51.228Z,99558.72
2023-03-15T05:21:17.976Z,99567.06
2023-03-15T05:23:44.610Z,99574.56
2023-03-15T05:26:11.335Z,99573.34
2023-03-15T05:28:37.966Z,99567.31
2023-03-15T05:31:04.742Z,99565.00
2023-03-15T05:33:31.720Z,99566.94
2023-03-15T05:38:27.132Z,99567.53
2023-03-15T05:40:54.629Z,99575.50
2023-03-15T05:43:22.290Z,99584.13
2023-03-15T05:45:49.735Z,99586.31
2023-03-15T05:48:16.999Z,99579.22
2023-03-15T05:50:43.825Z,99578.28
2023-03-15T05:53:10.742Z,99584.63
2023-03-15T05:55:37.760Z,99590.06
2023-03-15T05:58:04.832Z,99593.03
2023-03-15T06:00:31.847Z,99596.75
2023-03-15T06:02:58.754Z,99588.69
2023-03-15T06:05:25.466Z,99583.38
2023-03-15T06:07:53.094Z,99598.81
2023-03-15T06:10:20.778Z,99590.09
2023-03-15T06:12:47.542Z,99594.69
2023-03-15T06:15:14.556Z,99605.53
2023-03-15T06:17:41.217Z,99604.34
2023-03-15T06:20:08.447Z,99608.13
2023-03-15T06:22:35.340Z,99610.28
2023-03-15T06:25:03.737Z,99608.13
2023-03-15T06:27:31.135Z,99611.53
2023-03-15T06:29:58.606Z,99612.44
2023-03-15T06:32:25.801Z,99618.34
2023-03-15T06:34:55.601Z,99619.59
2023-03-15T06:37:34.296Z,99618.56
2023-03-15T06:40:09.946Z,99630.22
2023-03-15T06:42:37.663Z,99629.91
2023-03-15T06:45:05.644Z,99619.28
2023-03-15T06:47:33.034Z,99624.28
2023-03-15T06:52:26.633Z,99623.94
2023-03-15T06:54:53.565Z,99623.41
2023-03-15T06:57:20.657Z,99623.94
2023-03-15T06:59:47.504Z,99622.97
2023-03-15T07:02:17.646Z,99631.22
2023-03-15T07:04:46.010Z,99621.38
2023-03-15T07:07:13.545Z,99629.09
2023-03-15T07:09:41.153Z,99629.09
2023-03-15T07:12:08.408Z,99617.06
2023-03-15T07:14:35.242Z,99630.88
2023-03-15T07:17:05.124Z,99632.31
2023-03-15T07:19:31.786Z,99639.88
2023-03-15T07:21:58.483Z,99636.91
2023-03-15T07:24:25.243Z,99640.88
2023-03-15T07:26:56.441Z,99653.69
2023-03-15T07:29:26.220Z,99649.47
2023-03-15T07:31:53.128Z,99651.72
2023-03-15T07:34:19.799Z,99652.84
2023-03-15T07:36:46.646Z,99657.28
2023-03-15T07:39:13.832Z,99662.47
2023-03-15T07:41:40.612Z,99660.84
2023-03-15T07:44:07.638Z,99660.56
2023-03-15T07:46:34.459Z,99673.25
2023-03-15T07:49:01.108Z,99664.59
2023-03-15T07:51:27.734Z,99673.97
2023-03-15T07:53:54.472Z,99674.19
2023-03-15T07:56:21.316Z,99672.66
2023-03-15T07:58:48.315Z,99676.47
2023-03-15T08:01:15.604Z,99684.00
2023-03-15T08:03:42.215Z,99681.16
2023-03-15T08:06:08.947Z,99679.19
2023-03-15T08:08:35.617Z,99680.66
2023-03-15T08:11:02.339Z,99687.66
2023-03-15T08:13:29.055Z,99682.88
2023-03-15T08:15:55.753Z,99676.13
2023-03-15T08:18:22.426Z,99682.25
2023-03-15T08:20:49.315Z,99673.50
2023-03-15T08:23:16.780Z,99683.13
2023-03-15T08:25:44.782Z,99687.63
2023-03-15T08:28:12.052Z,99674.91
2023-03-15T08:30:38.878Z,99690.66
2023-03-15T08:33:05.892Z,99691.50
2023-03-15T08:35:34.492Z,99695.63
2023-03-15T08:38:02.954Z,99697.09
2023-03-15T08:40:30.524Z,99701.22
2023-03-15T08:42:58.017Z,99691.19
2023-03-15T08:45:26.418Z,99706.22
2023-03-15T08:50:27.978Z,99707.78
2023-03-15T08:52:54.752Z,99715.59
2023-03-15T08:55:21.461Z,99710.69
2023-03-15T08:57:48.207Z,99719.50
2023-03-15T09:00:21.112Z,99719.72
2023-03-15T09:02:52.344Z,99720.97
2023-03-15T09:05:21.292Z,99726.97
2023-03-15T09:07:48.687Z,99730.56
2023-03-15T09:10:17.444Z,99740.34
2023-03-15T09:12:47.060Z,99740.88
2023-03-15T09:15:13.922Z,99736.69
2023-03-15T09:17:41.549Z,99744.63
2023-03-15T09:20:19.214Z,99737.13
2023-03-15T09:22:57.866Z,99749.50
2023-03-15T09:25:25.837Z,99749.38
2023-03-15T09:27:53.016Z,99750.56
2023-03-15T09:30:20.146Z,99755.59
2023-03-15T09:32:47.115Z,99758.19
2023-03-15T09:35:16.323Z,99763.66
2023-03-15T09:37:43.068Z,99756.44
2023-03-15T09:40:15.719Z,99761.53
2023-03-15T09:43:01.314Z,99758.19
2023-03-15T09:46:01.343Z,99757.34
2023-03-15T09:48:32.771Z,99761.69
2023-03-15T09:51:00.412Z,99775.16
2023-03-15T09:53:32.318Z,99768.94
2023-03-15T09:58:32.830Z,99772.75
2023-03-15T10:01:00.467Z,99767.44
2023-03-15T10:03:46.883Z,99781.31
2023-03-15T10:06:23.199Z,99782.31
2023-03-15T10:08:55.353Z,99779.94
2023-03-15T10:11:44.128Z,99787.78
2023-03-15T10:14:47.341Z,99792.38
2023-03-15T10:17:19.196Z,99787.03
2023-03-15T10:19:56.198Z,99783.59
2023-03-15T10:22:32.332Z,99784.59
2023-03-15T10:27:37.553Z,99792.31
2023-03-15T10:30:18.406Z,99786.63
2023-03-15T10:32:50.077Z,99798.28
2023-03-15T10:35:18.836Z,99793.91
2023-03-15T10:37:46.125Z,99794.50
2023-03-15T10:40:17.223Z,99795.00
2023-03-15T10:42:45.992Z,99802.88
2023-03-15T10:45:24.798Z,99804.38
2023-03-15T10:48:00.284Z,99804.47
2023-03-15T10:50:33.730Z,99807.34
2023-03-15T10:53:00.359Z,99813.97
2023-03-15T10:55:33.968Z,99811.66
2023-03-15T10:58:21.142Z,99817.25
2023-03-15T11:00:53.896Z,99810.84
2023-03-15T11:03:23.554Z,99817.56
2023-03-15T11:05:53.715Z,99817.00
2023-03-15T11:08:24.174Z,99817.78
2023-03-15T11:10:59.054Z,99813.41
2023-03-15T11:13:28.411Z,99812.56
2023-03-15T11:16:01.409Z,99812.66
2023-03-15T11:18:35.799Z,99801.47
2023-03-15T11:21:07.676Z,99804.81
2023-03-15T11:23:40.616Z,99804.34
2023-03-15T11:26:29.553Z,99808.50
2023-03-15T11:29:02.037Z,99798.78
2023-03-15T11:31:29.769Z,99804.34
2023-03-15T11:34:01.572Z,99805.97
2023-03-15T11:36:32.226Z,99802.16
2023-03-15T11:39:02.836Z,99812.81
2023-03-15T11:41:44.831Z,99813.41
2023-03-15T11:44:29.206Z,99811.09
2023-03-15T11:47:01.326Z,99808.63
2023-03-15T11:49:42.242Z,99809.91
2023-03-15T11:52:09.467Z,99805.72
2023-03-15T11:54:36.820Z,99810.88
2023-03-15T11:57:03.549Z,99812.59
2023-03-15T11:59:32.901Z,99805.59
2023-03-15T12:02:00.459Z,99798.28
2023-03-15T12:04:33.022Z,99811.28
2023-03-15T12:07:00.532Z,99811.28
2023-03-15T12:09:33.137Z,99809.13
2023-03-15T12:12:00.431Z,99810.13
2023-03-15T12:14:32.421Z,99815.63
2023-03-15T12:17:01.334Z,99817.94
2023-03-15T12:19:28.383Z,99822.28
2023-03-15T12:21:58.226Z,99821.09
2023-03-15T12:24:36.655Z,99819.09
2023-03-15T12:27:18.284Z,99823.94
2023-03-15T12:29:47.328Z,99821.91
2023-03-15T12:32:16.783Z,99815.25
2023-03-15T12:35:01.443Z,99812.09
2023-03-15T12:37:32.941Z,99817.78
2023-03-15T12:40:01.477Z,99813.94
2023-03-15T12:42:36.882Z,99817.28
2023-03-15T12:45:40.665Z,99823.81
2023-03-15T12:48:12.634Z,99813.63
2023-03-15T12:50:45.947Z,99816.31
2023-03-15T12:53:40.168Z,99817.78
2023-03-15T12:56:19.056Z,99811.91
2023-03-15T12:58:54.261Z,99802.94
2023-03-15T13:01:25.909Z,99818.22
2023-03-15T13:03:58.368Z,99812.31
2023-03-15T13:06:37.239Z,99807.03
2023-03-15T13:09:04.898Z,99810.72
2023-03-15T13:11:49.625Z,99816.22
2023-03-15T13:14:50.121Z,99815.78
2023-03-15T13:17:43.101Z,99814.97
2023-03-15T13:20:31.359Z,99819.06
2023-03-15T13:23:01.417Z,99806.25
2023-03-15T13:25:39.032Z,99802.50
2023-03-15T13:28:22.557Z,99824.69
2023-03-15T13:30:55.090Z,99817.69
2023-03-15T13:33:31.771Z,99819.34
2023-03-15T13:36:01.634Z,99817.38
2023-03-15T13:38:44.310Z,99806.63
2023-03-15T13:41:32.240Z,99807.53
2023-03-15T13:44:01.682Z,99812.88
2023-03-15T13:46:31.505Z,99805.53
2023-03-15T13:49:01.459Z,99811.53
2023-03-15T13:51:31.989Z,99808.06
2023-03-15T13:54:02.731Z,99805.25
2023-03-15T13:56:46.893Z,99805.38
2023-03-15T13:59:14.789Z,99799.13
2023-03-15T14:01:43.183Z,99801.31
2023-03-15T14:04:18.173Z,99791.72
2023-03-15T14:06:48.226Z,99801.59
2023-03-15T14:09:21.841Z,99791.28
2023-03-15T14:12:01.520Z,99800.53
2023-03-15T14:14:34.174Z,99803.47
2023-03-15T14:17:09.255Z,99789.69
2023-03-15T14:19:36.984Z,99808.47
2023-03-15T14:22:15.704Z,99797.19
2023-03-15T14:24:44.760Z,99804.50
2023-03-15T14:27:22.210Z,99813.72
2023-03-15T14:29:51.819Z,99819.75
2023-03-15T14:32:37.146Z,99823.66
2023-03-15T14:35:20.068Z,99819.59
2023-03-15T14:37:47.140Z,99820.69
2023-03-15T14:40:17.351Z,99822.25
2023-03-15T14:42:45.048Z,99807.13
2023-03-15T14:45:12.349Z,99815.88
2023-03-15T14:47:56.809Z,99810.41
2023-03-15T14:50:27.417Z,99810.25
2023-03-15T14:52:54.907Z,99816.47
2023-03-15T14:55:25.110Z,99823.56
2023-03-15T14:57:54.455Z,99825.38
2023-03-15T15:00:21.469Z,99829.28
2023-03-15T15:02:52.061Z,99823.25
2023-03-15T15:05:31.187Z,99813.19
2023-03-15T15:08:01.418Z,99818.53
2023-03-15T15:10:28.310Z,99834.44
2023-03-15T15:13:05.699Z,99824.06
2023-03-15T15:15:25.860Z,99817.81
2023-03-15T15:17:53.740Z,99819.03
2023-03-15T15:20:22.992Z,99820.78
2023-03-15T15:22:49.987Z,99813.03
2023-03-15T15:25:22.806Z,99821.03
2023-03-15T15:27:50.869Z,99823.84
2023-03-15T15:30:26.860Z,99849.56
2023-03-15T15:32:53.582Z,99836.09
2023-03-15T15:35:20.904Z,99835.22
2023-03-15T15:37:50.435Z,99841.19
2023-03-15T15:40:23.478Z,99844.28
2023-03-15T15:42:50.131Z,99844.41
2023-03-15T15:45:18.490Z,99845.44
2023-03-15T15:47:45.946Z,99842.03
2023-03-15T15:50:17.988Z,99843.81
2023-03-15T15:52:48.834Z,99846.41
2023-03-15T15:55:22.146Z,99857.66
2023-03-15T15:57:50.901Z,99848.50
2023-03-15T16:00:24.706Z,99862.41
2023-03-15T16:02:55.447Z,99864.72
2023-03-15T16:05:25.171Z,99872.16
2023-03-15T16:07:53.167Z,99870.59
2023-03-15T16:10:26.011Z,99876.59
2023-03-15T16:12:55.360Z,99896.19
2023-03-15T16:15:22.211Z,99879.63
2023-03-15T16:17:49.319Z,99894.56
2023-03-15T16:20:17.247Z,99893.41
2023-03-15T16:22:51.864Z,99897.69
2023-03-15T16:25:25.771Z,99913.88
2023-03-15T16:27:55.215Z,99910.69
2023-03-15T16:30:28.085Z,99911.22
2023-03-15T16:32:55.445Z,99919.25
2023-03-15T16:35:42.293Z,99918.22
2023-03-15T16:38:16.500Z,99920.19
2023-03-15T16:40:45.780Z,99920.75
2023-03-15T16:43:14.250Z,99925.88
2023-03-15T16:45:41.765Z,99930.00
2023-03-15T16:48:08.728Z,99929.31
2023-03-15T16:50:39.223Z,99938.97
2023-03-15T16:53:08.462Z,99942.63
2023-03-15T16:55:35.477Z,99945.00
2023-03-15T16:58:11.612Z,99942.00
2023-03-15T17:00:38.793Z,99948.31
2023-03-15T17:03:05.581Z,99954.31
2023-03-15T17:05:33.163Z,99961.50
2023-03-15T17:10:32.816Z,99964.09
2023-03-15T17:13:00.536Z,99973.91
2023-03-15T17:15:28.465Z,99969.03
2023-03-15T17:17:58.041Z,99972.66
2023-03-15T17:20:29.161Z,99976.41
2023-03-15T17:25:25.848Z,99982.00
2023-03-15T17:27:52.555Z,99987.41
2023-03-15T17:30:28.361Z,99981.88
2023-03-15T17:32:55.665Z,99987.94
2023-03-15T17:35:27.737Z,99995.84
2023-03-15T17:37:54.910Z,99992.63
2023-03-15T17:40:30.886Z,99998.00
2023-03-15T17:45:34.728Z,100007.53
2023-03-15T17:48:02.330Z,100011.94
2023-03-15T17:50:32.131Z,100001.97
2023-03-15T17:53:01.694Z,100006.75
2023-03-15T17:55:30.953Z,100001.63
2023-03-15T17:57:57.627Z,100009.44
2023-03-15T18:00:25.305Z,100013.31
2023-03-15T18:02:55.845Z,100016.28
2023-03-15T18:05:31.681Z,100021.75
2023-03-15T18:07:59.769Z,100019.16
2023-03-15T18:10:33.499Z,100010.44
2023-03-15T18:15:26.155Z,100022.53
2023-03-15T18:17:52.944Z,100024.16
2023-03-15T18:20:24.144Z,100026.38
2023-03-15T18:22:54.705Z,100039.03
2023-03-15T18:25:26.936Z,100044.66
2023-03-15T18:27:54.494Z,100040.69
2023-03-15T18:30:23.584Z,100049.63
2023-03-15T18:32:51.630Z,100045.75
2023-03-15T18:35:21.281Z,100044.41
2023-03-15T18:37:49.018Z,100045.28
2023-03-15T18:40:21.353Z,100042.91
2023-03-15T18:42:48.461Z,100048.13
2023-03-15T18:45:19.386Z,100052.47
2023-03-15T18:47:46.384Z,100059.16
2023-03-15T18:50:15.630Z,100048.25
2023-03-15T18:52:43.497Z,100047.84
2023-03-15T18:55:16.505Z,100053.16
2023-03-15T18:57:45.139Z,100053.59
2023-03-15T19:00:17.148Z,100052.94
2023-03-15T19:02:46.500Z,100056.56
2023-03-15T19:05:14.308Z,100056.97
2023-03-15T19:07:43.485Z,100061.19
2023-03-15T19:10:16.302Z,100058.69
2023-03-15T19:12:45.027Z,100063.72
2023-03-15T19:15:17.707Z,100059.41
2023-03-15T19:17:49.358Z,100058.81
2023-03-15T19:20:19.117Z,100061.94
2023-03-15T19:22:46.221Z,100064.31
2023-03-15T19:25:14.183Z,100060.44
2023-03-15T19:27:42.292Z,100063.22
2023-03-15T19:30:14.518Z,100058.47
2023-03-15T19:32:42.872Z,100070.09
2023-03-15T19:35:12.673Z,100075.53
2023-03-15T19:37:39.829Z,100081.38
2023-03-15T19:40:10.231Z,100077.59
2023-03-15T19:42:36.909Z,100085.97
2023-03-15T19:45:05.285Z,100087.81
2023-03-15T19:47:32.314Z,100092.56
2023-03-15T19:49:58.992Z,100100.75
2023-03-15T19:52:27.597Z,100103.72
2023-03-15T19:54:54.435Z,100108.72
2023-03-15T19:57:21.452Z,100114.56
2023-03-15T19:59:51.179Z,100113.41
2023-03-15T20:02:17.879Z,100112.03
2023-03-15T20:04:44.630Z,100121.06
2023-03-15T20:07:12.506Z,100110.91
2023-03-15T20:09:41.618Z,100121.25
2023-03-15T20:12:11.245Z,100125.06
2023-03-15T20:14:42.040Z,100127.44
2023-03-15T20:17:08.779Z,100129.34
2023-03-15T20:19:36.353Z,100121.34
2023-03-15T20:22:03.499Z,100122.84
2023-03-15T20:24:30.397Z,100132.03
2023-03-15T20:26:57.161Z,100126.53
2023-03-15T20:29:23.835Z,100134.91
2023-03-15T20:31:51.036Z,100143.50
2023-03-15T20:34:17.823Z,100144.75
2023-03-15T20:36:44.742Z,100148.28
2023-03-15T20:39:11.444Z,100140.44
2023-03-15T20:41:39.276Z,100144.31
2023-03-15T20:44:06.143Z,100144.13
2023-03-15T20:46:33.663Z,100149.59
2023-03-15T20:51:26.003Z,100150.66
2023-03-15T20:53:52.930Z,100150.41
2023-03-15T20:56:21.695Z,100150.91
2023-03-15T20:58:51.728Z,100153.66
2023-03-15T21:01:18.497Z,100152.69
2023-03-15T21:03:45.927Z,100148.13
2023-03-15T21:06:13.724Z,100156.56
2023-03-15T21:08:42.735Z,100148.78
2023-03-15T21:11:12.680Z,100151.81
2023-03-15T21:13:39.445Z,100155.69
2023-03-15T21:16:06.636Z,100153.81
2023-03-15T21:18:35.579Z,100156.38
2023-03-15T21:21:07.619Z,100158.91
2023-03-15T21:23:35.411Z,100161.47
2023-03-15T21:26:06.821Z,100168.34
2023-03-15T21:28:34.519Z,100165.44
2023-03-15T21:31:01.572Z,100160.66
2023-03-15T21:33:30.296Z,100168.78
2023-03-15T21:36:01.674Z,100168.91
2023-03-15T21:38:31.572Z,100171.66
2023-03-15T21:43:33.271Z,100176.09
2023-03-15T21:46:00.794Z,100181.81
2023-03-15T21:48:28.037Z,100181.41
2023-03-15T21:50:54.780Z,100183.13
2023-03-15T21:53:25.267Z,100185.53
2023-03-15T21:55:57.895Z,100195.13
2023-03-15T21:58:26.170Z,100185.88
2023-03-15T22:01:02.134Z,100197.56
2023-03-15T22:03:29.566Z,100185.75
2023-03-15T22:05:56.509Z,100181.81
2023-03-15T22:08:24.049Z,100183.84
2023-03-15T22:10:55.123Z,100186.69
2023-03-15T22:13:22.575Z,100192.81
2023-03-15T22:15:49.796Z,100181.31
2023-03-15T22:18:16.671Z,100176.19
2023-03-15T22:20:43.508Z,100186.72
2023-03-15T22:23:14.413Z,100195.47
2023-03-15T22:25:41.126Z,100195.66
2023-03-15T22:28:07.778Z,100188.53
2023-03-15T22:30:34.934Z,100189.16
2023-03-15T22:33:01.697Z,100194.53
2023-03-15T22:35:29.462Z,100196.47
2023-03-15T22:40:28.385Z,100189.84
2023-03-15T22:42:57.326Z,100184.81
2023-03-15T22:45:26.144Z,100193.78
2023-03-15T22:47:53.470Z,100201.00
2023-03-15T22:50:20.642Z,100201.72
2023-03-15T22:52:48.277Z,100194.78
2023-03-15T22:55:14.934Z,100197.00
2023-03-15T22:57:41.826Z,100198.03
2023-03-15T23:00:14.098Z,100193.59
2023-03-15T23:02:42.561Z,100193.84
2023-03-15T23:05:10.055Z,100208.25
2023-03-15T23:07:36.941Z,100200.38
2023-03-15T23:10:06.292Z,100207.69
2023-03-15T23:12:36.501Z,100198.56
2023-03-15T23:15:04.842Z,100197.84
2023-03-15T23:17:31.910Z,100202.19
2023-03-15T23:19:58.816Z,100198.13
2023-03-15T23:22:26.260Z,100202.34
2023-03-15T23:24:53.038Z,100201.81
2023-03-15T23:27:19.715Z,100210.41
2023-03-15T23:29:54.637Z,100205.84
2023-03-15T23:32:23.149Z,100200.00
2023-03-15T23:34:50.056Z,100195.94
2023-03-15T23:37:20.103Z,100193.66
2023-03-15T23:39:46.896Z,100197.19
2023-03-15T23:42:14.040Z,100192.88
2023-03-15T23:44:40.785Z,100198.22
2023-03-15T23:47:07.953Z,100196.78
2023-03-15T23:49:34.709Z,100193.00
2023-03-15T23:52:06.111Z,100199.66
2023-03-15T23:54:39.805Z,100201.47
2023-03-15T23:57:08.526Z,100195.53
2023-03-15T23:59:36.431Z,100196.03
